sensor_id;sensor_type;location;lat;lon;timestamp;temperature;humidity
81951;DHT22;71452;52.562;5.642;2023-08-08T00:00:41;16.50;70.00
81951;DHT22;71452;52.562;5.642;2023-08-08T00:03:11;16.50;70.00
81951;DHT22;71452;52.562;5.642;2023-08-08T00:05:40;16.50;70.00
81951;DHT22;71452;52.562;5.642;2023-08-08T00:08:09;16.60;70.10
81951;DHT22;71452;52.562;5.642;2023-08-08T00:10:38;16.60;70.20
81951;DHT22;71452;52.562;5.642;2023-08-08T00:13:09;16.60;70.30
81951;DHT22;71452;52.562;5.642;2023-08-08T00:15:39;16.60;70.40
81951;DHT22;71452;52.562;5.642;2023-08-08T00:18:08;16.50;70.50
81951;DHT22;71452;52.562;5.642;2023-08-08T00:20:37;16.50;70.50
81951;DHT22;71452;52.562;5.642;2023-08-08T00:23:06;16.50;70.50
81951;DHT22;71452;52.562;5.642;2023-08-08T00:25:36;16.50;70.60
81951;DHT22;71452;52.562;5.642;2023-08-08T00:28:05;16.60;70.60
81951;DHT22;71452;52.562;5.642;2023-08-08T00:30:36;16.60;70.60
81951;DHT22;71452;52.562;5.642;2023-08-08T00:33:05;16.60;70.60
81951;DHT22;71452;52.562;5.642;2023-08-08T00:35:34;16.60;70.60
81951;DHT22;71452;52.562;5.642;2023-08-08T00:38:04;16.60;70.60
81951;DHT22;71452;52.562;5.642;2023-08-08T00:40:33;16.60;70.60
81951;DHT22;71452;52.562;5.642;2023-08-08T00:43:02;16.60;70.70
81951;DHT22;71452;52.562;5.642;2023-08-08T00:45:31;16.60;70.60
81951;DHT22;71452;52.562;5.642;2023-08-08T00:48:03;16.60;70.70
81951;DHT22;71452;52.562;5.642;2023-08-08T00:50:32;16.60;70.70
81951;DHT22;71452;52.562;5.642;2023-08-08T00:53:03;16.60;70.70
81951;DHT22;71452;52.562;5.642;2023-08-08T00:55:32;16.60;70.70
81951;DHT22;71452;52.562;5.642;2023-08-08T00:58:02;16.60;70.70
81951;DHT22;71452;52.562;5.642;2023-08-08T01:00:32;16.60;70.80
81951;DHT22;71452;52.562;5.642;2023-08-08T01:03:04;16.60;70.80
81951;DHT22;71452;52.562;5.642;2023-08-08T01:05:51;16.60;70.90
81951;DHT22;71452;52.562;5.642;2023-08-08T01:08:26;16.60;70.90
81951;DHT22;71452;52.562;5.642;2023-08-08T01:10:58;16.60;71.00
81951;DHT22;71452;52.562;5.642;2023-08-08T01:13:28;16.70;71.00
81951;DHT22;71452;52.562;5.642;2023-08-08T01:15:59;16.70;71.00
81951;DHT22;71452;52.562;5.642;2023-08-08T01:18:33;16.70;71.00
81951;DHT22;71452;52.562;5.642;2023-08-08T01:21:03;16.70;71.10
81951;DHT22;71452;52.562;5.642;2023-08-08T01:23:39;16.70;71.20
81951;DHT22;71452;52.562;5.642;2023-08-08T01:26:12;16.70;71.20
81951;DHT22;71452;52.562;5.642;2023-08-08T01:28:42;16.70;71.20
81951;DHT22;71452;52.562;5.642;2023-08-08T01:31:12;16.70;71.20
81951;DHT22;71452;52.562;5.642;2023-08-08T01:33:41;16.70;71.20
81951;DHT22;71452;52.562;5.642;2023-08-08T01:36:13;16.70;71.40
81951;DHT22;71452;52.562;5.642;2023-08-08T01:38:46;16.70;71.50
81951;DHT22;71452;52.562;5.642;2023-08-08T01:41:20;16.70;71.50
81951;DHT22;71452;52.562;5.642;2023-08-08T01:43:50;16.70;71.40
81951;DHT22;71452;52.562;5.642;2023-08-08T01:46:19;16.70;71.40
81951;DHT22;71452;52.562;5.642;2023-08-08T01:48:50;16.70;71.30
81951;DHT22;71452;52.562;5.642;2023-08-08T01:51:21;16.70;71.20
81951;DHT22;71452;52.562;5.642;2023-08-08T01:53:51;16.70;71.10
81951;DHT22;71452;52.562;5.642;2023-08-08T01:56:23;16.70;70.80
81951;DHT22;71452;52.562;5.642;2023-08-08T01:58:52;16.60;70.80
81951;DHT22;71452;52.562;5.642;2023-08-08T02:01:21;16.60;70.80
81951;DHT22;71452;52.562;5.642;2023-08-08T02:03:50;16.60;70.70
81951;DHT22;71452;52.562;5.642;2023-08-08T02:06:19;16.60;70.50
81951;DHT22;71452;52.562;5.642;2023-08-08T02:08:49;16.60;70.30
81951;DHT22;71452;52.562;5.642;2023-08-08T02:11:17;16.60;69.90
81951;DHT22;71452;52.562;5.642;2023-08-08T02:13:51;16.50;69.40
81951;DHT22;71452;52.562;5.642;2023-08-08T02:16:20;16.50;69.30
81951;DHT22;71452;52.562;5.642;2023-08-08T02:18:50;16.50;68.70
81951;DHT22;71452;52.562;5.642;2023-08-08T02:21:20;16.50;68.50
81951;DHT22;71452;52.562;5.642;2023-08-08T02:23:49;16.50;68.40
81951;DHT22;71452;52.562;5.642;2023-08-08T02:26:18;16.50;68.30
81951;DHT22;71452;52.562;5.642;2023-08-08T02:28:50;16.60;68.10
81951;DHT22;71452;52.562;5.642;2023-08-08T02:31:19;16.60;67.90
81951;DHT22;71452;52.562;5.642;2023-08-08T02:33:50;16.60;67.90
81951;DHT22;71452;52.562;5.642;2023-08-08T02:36:20;16.60;67.50
81951;DHT22;71452;52.562;5.642;2023-08-08T02:38:49;16.60;67.20
81951;DHT22;71452;52.562;5.642;2023-08-08T02:41:19;16.70;67.20
81951;DHT22;71452;52.562;5.642;2023-08-08T02:43:52;16.70;67.20
81951;DHT22;71452;52.562;5.642;2023-08-08T02:46:21;16.70;67.10
81951;DHT22;71452;52.562;5.642;2023-08-08T02:48:50;16.70;67.00
81951;DHT22;71452;52.562;5.642;2023-08-08T02:51:20;16.70;66.50
81951;DHT22;71452;52.562;5.642;2023-08-08T02:53:49;16.70;66.50
81951;DHT22;71452;52.562;5.642;2023-08-08T02:56:18;16.70;66.40
81951;DHT22;71452;52.562;5.642;2023-08-08T02:58:51;16.70;66.40
81951;DHT22;71452;52.562;5.642;2023-08-08T03:01:20;16.70;66.40
81951;DHT22;71452;52.562;5.642;2023-08-08T03:03:50;16.70;66.50
81951;DHT22;71452;52.562;5.642;2023-08-08T03:06:21;16.70;66.50
81951;DHT22;71452;52.562;5.642;2023-08-08T03:08:51;16.80;66.40
81951;DHT22;71452;52.562;5.642;2023-08-08T03:11:20;16.70;66.20
81951;DHT22;71452;52.562;5.642;2023-08-08T03:13:52;16.70;66.10
81951;DHT22;71452;52.562;5.642;2023-08-08T03:16:21;16.80;66.20
81951;DHT22;71452;52.562;5.642;2023-08-08T03:18:52;16.70;66.10
81951;DHT22;71452;52.562;5.642;2023-08-08T03:21:22;16.70;66.20
81951;DHT22;71452;52.562;5.642;2023-08-08T03:23:51;16.70;66.10
81951;DHT22;71452;52.562;5.642;2023-08-08T03:26:20;16.70;66.00
81951;DHT22;71452;52.562;5.642;2023-08-08T03:28:52;16.70;66.10
81951;DHT22;71452;52.562;5.642;2023-08-08T03:31:28;16.70;66.10
81951;DHT22;71452;52.562;5.642;2023-08-08T03:33:57;16.70;66.10
81951;DHT22;71452;52.562;5.642;2023-08-08T03:36:27;16.70;66.20
81951;DHT22;71452;52.562;5.642;2023-08-08T03:38:56;16.70;66.20
81951;DHT22;71452;52.562;5.642;2023-08-08T03:41:25;16.70;66.30
81951;DHT22;71452;52.562;5.642;2023-08-08T03:43:58;16.70;66.20
81951;DHT22;71452;52.562;5.642;2023-08-08T03:46:29;16.70;66.20
81951;DHT22;71452;52.562;5.642;2023-08-08T03:48:59;16.70;66.00
81951;DHT22;71452;52.562;5.642;2023-08-08T03:51:29;16.70;66.10
81951;DHT22;71452;52.562;5.642;2023-08-08T03:53:58;16.70;66.20
81951;DHT22;71452;52.562;5.642;2023-08-08T03:56:27;16.70;66.30
81951;DHT22;71452;52.562;5.642;2023-08-08T03:58:59;16.70;66.30
81951;DHT22;71452;52.562;5.642;2023-08-08T04:01:28;16.70;66.10
81951;DHT22;71452;52.562;5.642;2023-08-08T04:03:57;16.70;65.90
81951;DHT22;71452;52.562;5.642;2023-08-08T04:06:26;16.70;65.80
81951;DHT22;71452;52.562;5.642;2023-08-08T04:08:55;16.70;65.70
81951;DHT22;71452;52.562;5.642;2023-08-08T04:11:24;16.70;65.50
81951;DHT22;71452;52.562;5.642;2023-08-08T04:13:53;16.70;65.30
81951;DHT22;71452;52.562;5.642;2023-08-08T04:16:25;16.70;65.30
81951;DHT22;71452;52.562;5.642;2023-08-08T04:18:54;16.70;65.40
81951;DHT22;71452;52.562;5.642;2023-08-08T04:21:25;16.60;65.50
81951;DHT22;71452;52.562;5.642;2023-08-08T04:23:55;16.60;65.70
81951;DHT22;71452;52.562;5.642;2023-08-08T04:26:24;16.60;65.70
81951;DHT22;71452;52.562;5.642;2023-08-08T04:28:53;16.50;65.80
81951;DHT22;71452;52.562;5.642;2023-08-08T04:31:24;16.50;65.70
81951;DHT22;71452;52.562;5.642;2023-08-08T04:33:55;16.50;65.60
81951;DHT22;71452;52.562;5.642;2023-08-08T04:36:26;16.50;65.50
81951;DHT22;71452;52.562;5.642;2023-08-08T04:38:55;16.50;65.40
81951;DHT22;71452;52.562;5.642;2023-08-08T04:41:24;16.50;65.30
81951;DHT22;71452;52.562;5.642;2023-08-08T04:43:53;16.50;65.30
81951;DHT22;71452;52.562;5.642;2023-08-08T04:46:25;16.50;65.10
81951;DHT22;71452;52.562;5.642;2023-08-08T04:48:54;16.50;65.00
81951;DHT22;71452;52.562;5.642;2023-08-08T04:51:23;16.70;64.90
81951;DHT22;71452;52.562;5.642;2023-08-08T04:53:52;16.70;64.20
81951;DHT22;71452;52.562;5.642;2023-08-08T04:56:21;16.80;63.90
81951;DHT22;71452;52.562;5.642;2023-08-08T04:58:50;16.80;63.90
81951;DHT22;71452;52.562;5.642;2023-08-08T05:01:19;16.80;63.90
81951;DHT22;71452;52.562;5.642;2023-08-08T05:03:51;16.90;63.90
81951;DHT22;71452;52.562;5.642;2023-08-08T05:06:20;16.90;64.00
81951;DHT22;71452;52.562;5.642;2023-08-08T05:08:49;17.00;64.00
81951;DHT22;71452;52.562;5.642;2023-08-08T05:11:18;17.20;63.90
81951;DHT22;71452;52.562;5.642;2023-08-08T05:13:48;17.40;63.40
81951;DHT22;71452;52.562;5.642;2023-08-08T05:16:17;17.60;63.40
81951;DHT22;71452;52.562;5.642;2023-08-08T05:18:49;17.80;62.70
81951;DHT22;71452;52.562;5.642;2023-08-08T05:21:19;18.00;62.20
81951;DHT22;71452;52.562;5.642;2023-08-08T05:23:48;18.20;62.10
81951;DHT22;71452;52.562;5.642;2023-08-08T05:26:17;18.40;61.50
81951;DHT22;71452;52.562;5.642;2023-08-08T05:28:46;18.50;61.40
81951;DHT22;71452;52.562;5.642;2023-08-08T05:31:15;18.60;61.00
81951;DHT22;71452;52.562;5.642;2023-08-08T05:33:44;18.70;60.80
81951;DHT22;71452;52.562;5.642;2023-08-08T05:36:16;18.80;60.30
81951;DHT22;71452;52.562;5.642;2023-08-08T05:38:45;18.90;60.10
81951;DHT22;71452;52.562;5.642;2023-08-08T05:41:14;18.90;60.10
81951;DHT22;71452;52.562;5.642;2023-08-08T05:43:43;18.90;60.40
81951;DHT22;71452;52.562;5.642;2023-08-08T05:46:12;18.80;60.70
81951;DHT22;71452;52.562;5.642;2023-08-08T05:48:41;18.80;60.50
81951;DHT22;71452;52.562;5.642;2023-08-08T05:51:10;18.80;60.50
81951;DHT22;71452;52.562;5.642;2023-08-08T05:53:41;18.70;60.60
81951;DHT22;71452;52.562;5.642;2023-08-08T05:56:11;18.70;60.50
81951;DHT22;71452;52.562;5.642;2023-08-08T05:58:40;18.70;60.70
81951;DHT22;71452;52.562;5.642;2023-08-08T06:01:10;18.70;60.70
81951;DHT22;71452;52.562;5.642;2023-08-08T06:03:39;18.70;60.90
81951;DHT22;71452;52.562;5.642;2023-08-08T06:06:08;18.70;60.80
81951;DHT22;71452;52.562;5.642;2023-08-08T06:08:37;18.80;60.90
81951;DHT22;71452;52.562;5.642;2023-08-08T06:11:09;18.80;60.70
81951;DHT22;71452;52.562;5.642;2023-08-08T06:13:38;18.90;60.80
81951;DHT22;71452;52.562;5.642;2023-08-08T06:16:07;19.00;60.70
81951;DHT22;71452;52.562;5.642;2023-08-08T06:18:36;19.10;61.00
81951;DHT22;71452;52.562;5.642;2023-08-08T06:21:05;19.20;60.70
81951;DHT22;71452;52.562;5.642;2023-08-08T06:23:34;19.40;60.20
81951;DHT22;71452;52.562;5.642;2023-08-08T06:26:04;19.40;60.40
81951;DHT22;71452;52.562;5.642;2023-08-08T06:28:37;19.50;60.30
81951;DHT22;71452;52.562;5.642;2023-08-08T06:31:06;19.70;60.00
81951;DHT22;71452;52.562;5.642;2023-08-08T06:33:35;19.70;59.80
81951;DHT22;71452;52.562;5.642;2023-08-08T06:36:05;19.80;59.40
81951;DHT22;71452;52.562;5.642;2023-08-08T06:38:34;19.90;59.30
81951;DHT22;71452;52.562;5.642;2023-08-08T06:41:03;19.90;59.20
81951;DHT22;71452;52.562;5.642;2023-08-08T06:43:32;20.00;58.90
81951;DHT22;71452;52.562;5.642;2023-08-08T06:46:04;20.00;58.40
81951;DHT22;71452;52.562;5.642;2023-08-08T06:48:33;20.10;58.70
81951;DHT22;71452;52.562;5.642;2023-08-08T06:51:02;20.20;58.90
81951;DHT22;71452;52.562;5.642;2023-08-08T06:53:31;20.20;58.80
81951;DHT22;71452;52.562;5.642;2023-08-08T06:56:00;20.30;58.30
81951;DHT22;71452;52.562;5.642;2023-08-08T06:58:29;20.30;58.60
81951;DHT22;71452;52.562;5.642;2023-08-08T07:00:58;20.30;58.00
81951;DHT22;71452;52.562;5.642;2023-08-08T07:03:30;20.20;57.80
81951;DHT22;71452;52.562;5.642;2023-08-08T07:05:59;20.10;57.90
81951;DHT22;71452;52.562;5.642;2023-08-08T07:08:28;20.20;58.20
81951;DHT22;71452;52.562;5.642;2023-08-08T07:10:59;20.20;57.70
81951;DHT22;71452;52.562;5.642;2023-08-08T07:13:28;20.30;57.60
81951;DHT22;71452;52.562;5.642;2023-08-08T07:15:57;20.30;57.50
81951;DHT22;71452;52.562;5.642;2023-08-08T07:18:29;20.30;57.60
81951;DHT22;71452;52.562;5.642;2023-08-08T07:20:58;20.30;57.30
81951;DHT22;71452;52.562;5.642;2023-08-08T07:23:30;20.10;57.70
81951;DHT22;71452;52.562;5.642;2023-08-08T07:25:59;20.10;58.00
81951;DHT22;71452;52.562;5.642;2023-08-08T07:28:28;20.10;57.70
81951;DHT22;71452;52.562;5.642;2023-08-08T07:30:58;20.10;57.80
81951;DHT22;71452;52.562;5.642;2023-08-08T07:33:30;20.10;57.60
81951;DHT22;71452;52.562;5.642;2023-08-08T07:35:59;20.00;57.80
81951;DHT22;71452;52.562;5.642;2023-08-08T07:38:28;20.00;58.10
81951;DHT22;71452;52.562;5.642;2023-08-08T07:40:59;20.00;58.00
81951;DHT22;71452;52.562;5.642;2023-08-08T07:43:28;19.90;58.00
81951;DHT22;71452;52.562;5.642;2023-08-08T07:45:57;19.90;58.10
81951;DHT22;71452;52.562;5.642;2023-08-08T07:48:26;19.80;58.60
81951;DHT22;71452;52.562;5.642;2023-08-08T07:50:57;19.70;58.40
81951;DHT22;71452;52.562;5.642;2023-08-08T07:53:26;19.70;58.30
81951;DHT22;71452;52.562;5.642;2023-08-08T07:55:55;19.60;58.60
81951;DHT22;71452;52.562;5.642;2023-08-08T07:58:24;19.60;58.50
81951;DHT22;71452;52.562;5.642;2023-08-08T08:00:54;19.50;59.00
81951;DHT22;71452;52.562;5.642;2023-08-08T08:03:23;19.50;58.70
81951;DHT22;71452;52.562;5.642;2023-08-08T08:05:52;19.50;58.80
81951;DHT22;71452;52.562;5.642;2023-08-08T08:08:24;19.40;58.70
81951;DHT22;71452;52.562;5.642;2023-08-08T08:10:53;19.40;59.10
81951;DHT22;71452;52.562;5.642;2023-08-08T08:13:22;19.40;59.20
81951;DHT22;71452;52.562;5.642;2023-08-08T08:15:51;19.40;59.00
81951;DHT22;71452;52.562;5.642;2023-08-08T08:18:20;19.30;59.30
81951;DHT22;71452;52.562;5.642;2023-08-08T08:20:49;19.40;59.20
81951;DHT22;71452;52.562;5.642;2023-08-08T08:23:18;19.40;59.40
81951;DHT22;71452;52.562;5.642;2023-08-08T08:25:50;19.50;59.50
81951;DHT22;71452;52.562;5.642;2023-08-08T08:28:19;19.50;59.90
81951;DHT22;71452;52.562;5.642;2023-08-08T08:30:48;19.70;60.10
81951;DHT22;71452;52.562;5.642;2023-08-08T08:33:17;20.00;59.20
81951;DHT22;71452;52.562;5.642;2023-08-08T08:35:46;20.10;58.70
81951;DHT22;71452;52.562;5.642;2023-08-08T08:38:15;20.30;58.70
81951;DHT22;71452;52.562;5.642;2023-08-08T08:40:45;20.50;57.30
81951;DHT22;71452;52.562;5.642;2023-08-08T08:43:17;20.50;57.30
81951;DHT22;71452;52.562;5.642;2023-08-08T08:45:51;20.50;57.80
81951;DHT22;71452;52.562;5.642;2023-08-08T08:48:21;20.60;57.50
81951;DHT22;71452;52.562;5.642;2023-08-08T08:50:51;20.50;57.60
81951;DHT22;71452;52.562;5.642;2023-08-08T08:53:20;20.50;57.90
81951;DHT22;71452;52.562;5.642;2023-08-08T08:55:50;20.50;57.90
81951;DHT22;71452;52.562;5.642;2023-08-08T08:58:24;20.60;57.50
81951;DHT22;71452;52.562;5.642;2023-08-08T09:00:54;20.50;57.80
81951;DHT22;71452;52.562;5.642;2023-08-08T09:03:24;20.50;58.00
81951;DHT22;71452;52.562;5.642;2023-08-08T09:05:54;20.30;58.00
81951;DHT22;71452;52.562;5.642;2023-08-08T09:08:23;20.10;58.90
81951;DHT22;71452;52.562;5.642;2023-08-08T09:10:52;20.20;59.10
81951;DHT22;71452;52.562;5.642;2023-08-08T09:13:25;20.20;59.10
81951;DHT22;71452;52.562;5.642;2023-08-08T09:15:54;20.10;59.00
81951;DHT22;71452;52.562;5.642;2023-08-08T09:18:24;20.00;58.50
81951;DHT22;71452;52.562;5.642;2023-08-08T09:20:53;19.90;59.00
81951;DHT22;71452;52.562;5.642;2023-08-08T09:23:22;19.60;59.80
81951;DHT22;71452;52.562;5.642;2023-08-08T09:25:55;19.50;60.80
81951;DHT22;71452;52.562;5.642;2023-08-08T09:28:27;19.50;60.70
81951;DHT22;71452;52.562;5.642;2023-08-08T09:30:56;19.60;60.30
81951;DHT22;71452;52.562;5.642;2023-08-08T09:33:29;19.60;60.50
81951;DHT22;71452;52.562;5.642;2023-08-08T09:35:58;19.60;60.40
81951;DHT22;71452;52.562;5.642;2023-08-08T09:38:28;19.70;60.20
81951;DHT22;71452;52.562;5.642;2023-08-08T09:40:57;19.70;59.70
81951;DHT22;71452;52.562;5.642;2023-08-08T09:43:29;19.80;59.80
81951;DHT22;71452;52.562;5.642;2023-08-08T09:45:58;19.90;59.90
81951;DHT22;71452;52.562;5.642;2023-08-08T09:48:29;19.90;60.00
81951;DHT22;71452;52.562;5.642;2023-08-08T09:50:59;19.90;60.00
81951;DHT22;71452;52.562;5.642;2023-08-08T09:53:31;19.90;60.00
81951;DHT22;71452;52.562;5.642;2023-08-08T09:56:01;19.90;59.40
81951;DHT22;71452;52.562;5.642;2023-08-08T09:58:34;19.80;59.50
81951;DHT22;71452;52.562;5.642;2023-08-08T10:01:05;19.80;60.00
81951;DHT22;71452;52.562;5.642;2023-08-08T10:03:35;19.80;60.00
81951;DHT22;71452;52.562;5.642;2023-08-08T10:06:05;19.70;60.60
81951;DHT22;71452;52.562;5.642;2023-08-08T10:08:34;19.60;60.80
81951;DHT22;71452;52.562;5.642;2023-08-08T10:11:05;19.60;60.50
81951;DHT22;71452;52.562;5.642;2023-08-08T10:13:46;19.60;61.10
81951;DHT22;71452;52.562;5.642;2023-08-08T10:16:16;19.50;61.30
81951;DHT22;71452;52.562;5.642;2023-08-08T10:18:46;19.50;61.80
81951;DHT22;71452;52.562;5.642;2023-08-08T10:21:24;19.50;61.40
81951;DHT22;71452;52.562;5.642;2023-08-08T10:24:05;19.60;60.80
81951;DHT22;71452;52.562;5.642;2023-08-08T10:29:21;20.00;59.60
81951;DHT22;71452;52.562;5.642;2023-08-08T10:31:53;20.10;59.60
81951;DHT22;71452;52.562;5.642;2023-08-08T10:34:27;20.30;59.70
81951;DHT22;71452;52.562;5.642;2023-08-08T10:37:06;20.60;58.20
81951;DHT22;71452;52.562;5.642;2023-08-08T10:39:50;20.70;58.00
81951;DHT22;71452;52.562;5.642;2023-08-08T10:42:20;20.70;58.00
81951;DHT22;71452;52.562;5.642;2023-08-08T10:44:55;20.70;58.90
81951;DHT22;71452;52.562;5.642;2023-08-08T10:47:25;20.80;58.20
81951;DHT22;71452;52.562;5.642;2023-08-08T10:49:59;20.90;57.00
81951;DHT22;71452;52.562;5.642;2023-08-08T10:52:29;20.90;57.20
81951;DHT22;71452;52.562;5.642;2023-08-08T10:55:02;20.60;57.90
81951;DHT22;71452;52.562;5.642;2023-08-08T10:57:31;20.50;58.40
81951;DHT22;71452;52.562;5.642;2023-08-08T11:00:21;20.30;58.90
81951;DHT22;71452;52.562;5.642;2023-08-08T11:02:51;20.20;59.00
81951;DHT22;71452;52.562;5.642;2023-08-08T11:05:22;20.10;59.10
81951;DHT22;71452;52.562;5.642;2023-08-08T11:07:52;20.10;59.50
81951;DHT22;71452;52.562;5.642;2023-08-08T11:10:21;20.20;59.50
81951;DHT22;71452;52.562;5.642;2023-08-08T11:12:58;20.30;58.60
81951;DHT22;71452;52.562;5.642;2023-08-08T11:15:32;20.30;57.70
81951;DHT22;71452;52.562;5.642;2023-08-08T11:18:02;20.50;57.60
81951;DHT22;71452;52.562;5.642;2023-08-08T11:20:32;20.50;58.20
81951;DHT22;71452;52.562;5.642;2023-08-08T11:23:03;20.70;57.90
81951;DHT22;71452;52.562;5.642;2023-08-08T11:25:36;21.00;56.50
81951;DHT22;71452;52.562;5.642;2023-08-08T11:28:05;21.10;55.60
81951;DHT22;71452;52.562;5.642;2023-08-08T11:30:38;21.10;56.20
81951;DHT22;71452;52.562;5.642;2023-08-08T11:33:08;21.20;56.70
81951;DHT22;71452;52.562;5.642;2023-08-08T11:35:38;21.10;55.70
81951;DHT22;71452;52.562;5.642;2023-08-08T11:38:12;21.10;56.50
81951;DHT22;71452;52.562;5.642;2023-08-08T11:40:43;21.10;56.70
81951;DHT22;71452;52.562;5.642;2023-08-08T11:43:12;21.30;55.60
81951;DHT22;71452;52.562;5.642;2023-08-08T11:45:45;21.40;56.10
81951;DHT22;71452;52.562;5.642;2023-08-08T11:48:21;21.40;54.90
81951;DHT22;71452;52.562;5.642;2023-08-08T11:50:52;21.40;54.80
81951;DHT22;71452;52.562;5.642;2023-08-08T11:53:23;21.30;54.80
81951;DHT22;71452;52.562;5.642;2023-08-08T11:55:52;21.10;55.00
81951;DHT22;71452;52.562;5.642;2023-08-08T11:58:23;21.10;55.80
81951;DHT22;71452;52.562;5.642;2023-08-08T12:00:56;21.10;56.40
81951;DHT22;71452;52.562;5.642;2023-08-08T12:03:26;21.30;55.30
81951;DHT22;71452;52.562;5.642;2023-08-08T12:05:55;21.20;55.50
81951;DHT22;71452;52.562;5.642;2023-08-08T12:08:24;21.20;55.70
81951;DHT22;71452;52.562;5.642;2023-08-08T12:10:53;21.30;56.10
81951;DHT22;71452;52.562;5.642;2023-08-08T12:13:23;21.40;55.80
81951;DHT22;71452;52.562;5.642;2023-08-08T12:15:58;21.50;55.30
81951;DHT22;71452;52.562;5.642;2023-08-08T12:18:27;21.50;55.20
81951;DHT22;71452;52.562;5.642;2023-08-08T12:20:59;21.60;55.70
81951;DHT22;71452;52.562;5.642;2023-08-08T12:23:28;21.70;55.90
81951;DHT22;71452;52.562;5.642;2023-08-08T12:25:57;21.70;55.80
81951;DHT22;71452;52.562;5.642;2023-08-08T12:28:26;21.90;56.30
81951;DHT22;71452;52.562;5.642;2023-08-08T12:30:58;21.90;55.90
81951;DHT22;71452;52.562;5.642;2023-08-08T12:33:27;22.00;55.80
81951;DHT22;71452;52.562;5.642;2023-08-08T12:35:56;22.00;55.40
81951;DHT22;71452;52.562;5.642;2023-08-08T12:38:25;22.00;54.60
81951;DHT22;71452;52.562;5.642;2023-08-08T12:40:54;21.90;54.00
81951;DHT22;71452;52.562;5.642;2023-08-08T12:43:23;21.90;54.20
81951;DHT22;71452;52.562;5.642;2023-08-08T12:45:52;21.90;54.50
81951;DHT22;71452;52.562;5.642;2023-08-08T12:48:24;21.80;54.70
81951;DHT22;71452;52.562;5.642;2023-08-08T12:50:53;21.70;55.20
81951;DHT22;71452;52.562;5.642;2023-08-08T12:53:22;21.70;54.60
81951;DHT22;71452;52.562;5.642;2023-08-08T12:55:51;21.50;54.90
81951;DHT22;71452;52.562;5.642;2023-08-08T12:58:20;21.40;55.20
81951;DHT22;71452;52.562;5.642;2023-08-08T13:00:49;21.30;55.70
81951;DHT22;71452;52.562;5.642;2023-08-08T13:03:18;21.20;56.10
81951;DHT22;71452;52.562;5.642;2023-08-08T13:05:50;21.20;56.50
81951;DHT22;71452;52.562;5.642;2023-08-08T13:08:19;21.20;55.90
81951;DHT22;71452;52.562;5.642;2023-08-08T13:10:48;21.10;56.20
81951;DHT22;71452;52.562;5.642;2023-08-08T13:13:17;21.30;56.50
81951;DHT22;71452;52.562;5.642;2023-08-08T13:15:48;21.50;56.20
81951;DHT22;71452;52.562;5.642;2023-08-08T13:18:17;21.50;55.90
81951;DHT22;71452;52.562;5.642;2023-08-08T13:20:46;21.50;55.40
81951;DHT22;71452;52.562;5.642;2023-08-08T13:23:17;21.50;55.30
81951;DHT22;71452;52.562;5.642;2023-08-08T13:25:47;21.50;55.30
81951;DHT22;71452;52.562;5.642;2023-08-08T13:28:16;21.70;55.50
81951;DHT22;71452;52.562;5.642;2023-08-08T13:30:45;21.70;55.70
81951;DHT22;71452;52.562;5.642;2023-08-08T13:33:14;21.60;55.10
81951;DHT22;71452;52.562;5.642;2023-08-08T13:35:43;21.50;55.00
81951;DHT22;71452;52.562;5.642;2023-08-08T13:38:12;21.50;55.20
81951;DHT22;71452;52.562;5.642;2023-08-08T13:40:44;21.50;55.80
81951;DHT22;71452;52.562;5.642;2023-08-08T13:43:13;21.50;55.30
81951;DHT22;71452;52.562;5.642;2023-08-08T13:45:42;21.50;55.50
81951;DHT22;71452;52.562;5.642;2023-08-08T13:48:11;21.50;55.40
81951;DHT22;71452;52.562;5.642;2023-08-08T13:50:40;21.50;55.70
81951;DHT22;71452;52.562;5.642;2023-08-08T13:53:09;21.50;54.80
81951;DHT22;71452;52.562;5.642;2023-08-08T13:55:38;21.50;55.10
81951;DHT22;71452;52.562;5.642;2023-08-08T13:58:10;21.50;55.70
81951;DHT22;71452;52.562;5.642;2023-08-08T14:00:39;21.50;55.50
81951;DHT22;71452;52.562;5.642;2023-08-08T14:03:08;21.40;55.20
81951;DHT22;71452;52.562;5.642;2023-08-08T14:05:37;21.30;55.50
81951;DHT22;71452;52.562;5.642;2023-08-08T14:08:06;21.40;55.20
81951;DHT22;71452;52.562;5.642;2023-08-08T14:10:35;21.30;55.70
81951;DHT22;71452;52.562;5.642;2023-08-08T14:13:04;21.30;55.90
81951;DHT22;71452;52.562;5.642;2023-08-08T14:15:36;21.20;55.70
81951;DHT22;71452;52.562;5.642;2023-08-08T14:18:08;21.10;56.00
81951;DHT22;71452;52.562;5.642;2023-08-08T14:20:37;21.30;56.40
81951;DHT22;71452;52.562;5.642;2023-08-08T14:23:07;21.40;56.10
81951;DHT22;71452;52.562;5.642;2023-08-08T14:25:36;21.30;56.20
81951;DHT22;71452;52.562;5.642;2023-08-08T14:28:05;21.30;56.30
81951;DHT22;71452;52.562;5.642;2023-08-08T14:30:39;21.20;56.40
81951;DHT22;71452;52.562;5.642;2023-08-08T14:33:08;21.20;56.50
81951;DHT22;71452;52.562;5.642;2023-08-08T14:35:37;21.10;56.00
81951;DHT22;71452;52.562;5.642;2023-08-08T14:38:06;21.00;56.20
81951;DHT22;71452;52.562;5.642;2023-08-08T14:40:35;21.00;56.50
81951;DHT22;71452;52.562;5.642;2023-08-08T14:43:04;21.00;56.80
81951;DHT22;71452;52.562;5.642;2023-08-08T14:45:39;20.90;56.90
81951;DHT22;71452;52.562;5.642;2023-08-08T14:48:08;20.90;57.10
81951;DHT22;71452;52.562;5.642;2023-08-08T14:50:37;21.00;57.30
81951;DHT22;71452;52.562;5.642;2023-08-08T14:53:06;21.00;56.10
81951;DHT22;71452;52.562;5.642;2023-08-08T14:55:35;21.00;56.10
81951;DHT22;71452;52.562;5.642;2023-08-08T14:58:04;20.90;56.30
81951;DHT22;71452;52.562;5.642;2023-08-08T15:00:33;20.80;56.80
81951;DHT22;71452;52.562;5.642;2023-08-08T15:03:05;20.80;56.60
81951;DHT22;71452;52.562;5.642;2023-08-08T15:05:34;20.80;56.60
81951;DHT22;71452;52.562;5.642;2023-08-08T15:08:03;20.80;57.00
81951;DHT22;71452;52.562;5.642;2023-08-08T15:10:32;20.80;57.20
81951;DHT22;71452;52.562;5.642;2023-08-08T15:13:01;20.90;57.20
81951;DHT22;71452;52.562;5.642;2023-08-08T15:15:31;20.90;57.40
81951;DHT22;71452;52.562;5.642;2023-08-08T15:18:00;20.80;58.00
81951;DHT22;71452;52.562;5.642;2023-08-08T15:20:32;20.80;57.90
81951;DHT22;71452;52.562;5.642;2023-08-08T15:23:02;20.80;57.90
81951;DHT22;71452;52.562;5.642;2023-08-08T15:25:32;20.80;57.20
81951;DHT22;71452;52.562;5.642;2023-08-08T15:28:02;20.80;57.60
81951;DHT22;71452;52.562;5.642;2023-08-08T15:30:31;20.80;57.70
81951;DHT22;71452;52.562;5.642;2023-08-08T15:33:01;20.80;57.50
81951;DHT22;71452;52.562;5.642;2023-08-08T15:35:33;20.90;56.90
81951;DHT22;71452;52.562;5.642;2023-08-08T15:38:02;20.90;57.40
81951;DHT22;71452;52.562;5.642;2023-08-08T15:40:32;20.90;56.40
81951;DHT22;71452;52.562;5.642;2023-08-08T15:43:01;20.80;56.10
81951;DHT22;71452;52.562;5.642;2023-08-08T15:45:30;20.80;56.20
81951;DHT22;71452;52.562;5.642;2023-08-08T15:47:59;20.80;55.80
81951;DHT22;71452;52.562;5.642;2023-08-08T15:50:29;20.80;56.20